Time;durP1;ratioP1;P1;durP2;ratioP2;P2;SDS_P1;SDS_P2;PMS_P1;PMS_P2;Temp;Humidity;BMP_temperature;BMP_pressure;BME280_temperature;BME280_humidity;BME280_pressure;Samples;Min_cycle;Max_cycle;Signal;HPM_P1;HPM_P2
2022/01/28 00:00:08;;;;;;;1.60;1.40;;;5.60;98.20;;;;;;4969059;28;20492;-74
2022/01/28 00:03:00;;;;;;;1.67;1.30;;;5.60;98.20;;;;;;4968530;28;21083;-74
2022/01/28 00:05:28;;;;;;;1.67;1.30;;;5.60;98.20;;;;;;4964169;28;20475;-74
2022/01/28 00:07:56;;;;;;;1.60;1.30;;;5.60;98.20;;;;;;4972793;28;20554;-74
2022/01/28 00:10:25;;;;;;;1.60;1.40;;;5.70;98.20;;;;;;4963270;28;20908;-74
2022/01/28 00:15:55;;;;;;;1.70;1.30;;;5.70;98.20;;;;;;4974027;28;20465;-75
2022/01/28 00:18:48;;;;;;;1.70;1.40;;;5.70;98.20;;;;;;4961529;28;20489;-74
2022/01/28 00:40:41;;;;;;;1.70;1.40;;;5.70;98.20;;;;;;4969683;28;20462;-76
2022/01/28 00:43:08;;;;;;;1.67;1.43;;;5.70;98.20;;;;;;4976599;28;21013;-75
2022/01/28 00:45:35;;;;;;;1.60;1.30;;;5.60;98.20;;;;;;4971005;28;20661;-76
2022/01/28 00:48:02;;;;;;;1.60;1.30;;;5.60;98.20;;;;;;4978520;28;21047;-76
2022/01/28 00:50:29;;;;;;;1.60;1.20;;;5.50;98.20;;;;;;4972505;28;20491;-76
2022/01/28 00:52:55;;;;;;;1.70;1.50;;;5.50;98.20;;;;;;4975443;28;20985;-75
2022/01/28 00:55:24;;;;;;;1.70;1.30;;;5.50;98.20;;;;;;4976757;28;20488;-77
2022/01/28 00:57:50;;;;;;;1.70;1.40;;;5.40;98.20;;;;;;4977711;28;20499;-76
2022/01/28 01:00:18;;;;;;;1.70;1.40;;;5.40;98.20;;;;;;4973418;28;20824;-76
2022/01/28 01:02:45;;;;;;;1.70;1.40;;;5.30;98.20;;;;;;4976469;28;20527;-75
2022/01/28 01:05:12;;;;;;;1.67;1.40;;;5.30;98.20;;;;;;4966210;28;20931;-75
2022/01/28 01:07:39;;;;;;;1.70;1.57;;;5.30;98.20;;;;;;4969811;28;20483;-77
2022/01/28 01:10:07;;;;;;;1.63;1.40;;;5.30;98.20;;;;;;4972825;28;20489;-75
2022/01/28 01:12:41;;;;;;;1.67;1.30;;;5.20;98.20;;;;;;4977267;28;20873;-75
2022/01/28 01:15:09;;;;;;;1.70;1.50;;;5.20;98.20;;;;;;4967831;28;21026;-76
2022/01/28 01:17:39;;;;;;;1.60;1.30;;;5.20;98.20;;;;;;4974756;28;20481;-76
2022/01/28 01:20:30;;;;;;;1.70;1.53;;;5.10;98.20;;;;;;4973038;28;21057;-74
2022/01/28 01:23:07;;;;;;;1.70;1.60;;;5.10;98.20;;;;;;4972692;28;20993;-75
2022/01/28 01:25:43;;;;;;;1.70;1.50;;;5.00;98.20;;;;;;4974593;28;20552;-76
2022/01/28 01:28:13;;;;;;;1.70;1.50;;;5.00;98.20;;;;;;4974311;28;20572;-76
2022/01/28 01:30:42;;;;;;;1.60;1.30;;;5.00;98.20;;;;;;4989455;28;20465;-74
2022/01/28 01:33:09;;;;;;;1.67;1.30;;;5.00;98.20;;;;;;4978892;28;21124;-75
2022/01/28 01:35:37;;;;;;;1.60;1.30;;;5.00;98.20;;;;;;4980987;28;20655;-76
2022/01/28 01:38:05;;;;;;;1.70;1.40;;;4.90;98.20;;;;;;4976078;28;20477;-75
2022/01/28 01:40:37;;;;;;;1.67;1.40;;;4.90;98.20;;;;;;4971575;28;20827;-75
2022/01/28 01:43:12;;;;;;;1.70;1.47;;;4.90;98.20;;;;;;4975259;28;20561;-75
2022/01/28 01:53:50;;;;;;;1.70;1.40;;;4.80;98.20;;;;;;4977429;28;20454;-75
2022/01/28 01:56:17;;;;;;;1.70;1.50;;;4.80;98.20;;;;;;4972795;28;20501;-75
2022/01/28 01:58:44;;;;;;;1.67;1.40;;;4.70;98.20;;;;;;4984327;28;20474;-76
2022/01/28 02:01:12;;;;;;;1.63;1.40;;;4.70;98.20;;;;;;4964188;28;20496;-73
2022/01/28 02:03:39;;;;;;;1.60;1.40;;;4.70;98.20;;;;;;4982772;28;20519;-74
2022/01/28 02:06:06;;;;;;;1.70;1.40;;;4.70;98.20;;;;;;4972455;28;20469;-76
2022/01/28 02:08:35;;;;;;;1.67;1.40;;;4.70;98.20;;;;;;4994067;28;20520;-75
2022/01/28 02:11:02;;;;;;;1.70;1.40;;;4.60;98.20;;;;;;4958453;28;20477;-75
2022/01/28 02:13:30;;;;;;;1.70;1.50;;;4.60;98.20;;;;;;4983295;28;20462;-75
2022/01/28 02:16:00;;;;;;;1.60;1.30;;;4.50;98.20;;;;;;4967301;28;20479;-75
2022/01/28 02:18:28;;;;;;;1.70;1.50;;;4.50;98.20;;;;;;4983366;28;20506;-76
2022/01/28 02:21:03;;;;;;;1.70;1.50;;;4.40;98.20;;;;;;4957422;28;20466;-74
2022/01/28 02:23:31;;;;;;;1.60;1.30;;;4.40;98.20;;;;;;4976219;28;20755;-75
2022/01/28 02:25:59;;;;;;;1.70;1.40;;;4.40;98.20;;;;;;4961191;28;20958;-75
2022/01/28 02:28:28;;;;;;;1.60;1.30;;;4.30;98.20;;;;;;4981058;28;20493;-76
2022/01/28 02:30:55;;;;;;;1.70;1.50;;;4.30;98.20;;;;;;4959702;28;20598;-74
2022/01/28 02:33:24;;;;;;;1.70;1.40;;;4.30;98.20;;;;;;4983774;28;20901;-75
2022/01/28 02:35:51;;;;;;;1.70;1.50;;;4.30;98.20;;;;;;4961196;28;20971;-75
2022/01/28 02:38:22;;;;;;;1.70;1.43;;;4.20;98.20;;;;;;4992928;28;20481;-74
2022/01/28 02:40:54;;;;;;;1.70;1.40;;;4.20;98.20;;;;;;4963244;28;21179;-75
2022/01/28 02:43:31;;;;;;;1.70;1.40;;;4.20;98.20;;;;;;4983585;28;20462;-75
2022/01/28 02:46:04;;;;;;;1.60;1.40;;;4.10;98.20;;;;;;4962921;28;20576;-75
2022/01/28 02:48:33;;;;;;;1.60;1.40;;;4.10;98.20;;;;;;4987196;28;20521;-74
2022/01/28 02:51:05;;;;;;;1.60;1.30;;;4.10;98.20;;;;;;4978302;28;20842;-74
2022/01/28 02:53:41;;;;;;;1.60;1.40;;;4.10;98.20;;;;;;4978863;28;20464;-75
2022/01/28 02:56:16;;;;;;;1.63;1.40;;;4.10;98.20;;;;;;4965397;28;20855;-74
2022/01/28 02:58:45;;;;;;;1.70;1.40;;;4.10;98.20;;;;;;4985646;28;21015;-75
2022/01/28 03:01:14;;;;;;;1.70;1.50;;;4.00;98.20;;;;;;4964095;28;20485;-78
2022/01/28 03:03:42;;;;;;;1.67;1.40;;;4.00;98.20;;;;;;4985413;28;20844;-74
2022/01/28 03:06:09;;;;;;;1.70;1.50;;;4.00;98.20;;;;;;4969829;28;20935;-75
2022/01/28 03:08:37;;;;;;;1.70;1.50;;;4.00;98.20;;;;;;4980792;28;20498;-75
2022/01/28 03:11:29;;;;;;;1.70;1.40;;;4.00;98.20;;;;;;4960157;28;20474;-75
2022/01/28 03:14:15;;;;;;;1.60;1.30;;;4.00;98.20;;;;;;4977817;28;20496;-75
2022/01/28 03:17:07;;;;;;;1.60;1.40;;;4.00;98.20;;;;;;4965883;28;20540;-75
2022/01/28 03:19:45;;;;;;;1.60;1.40;;;4.00;98.20;;;;;;4989811;23;21702;-76
2022/01/28 03:22:12;;;;;;;1.63;1.40;;;4.00;98.20;;;;;;4988349;28;20479;-76
2022/01/28 03:24:41;;;;;;;1.70;1.50;;;4.00;98.20;;;;;;4992061;28;20465;-75
2022/01/28 03:27:14;;;;;;;1.60;1.43;;;4.00;98.20;;;;;;4987898;28;20480;-76
2022/01/28 03:29:41;;;;;;;1.63;1.40;;;4.00;98.20;;;;;;4989436;28;20996;-76
2022/01/28 03:32:08;;;;;;;1.70;1.47;;;4.00;98.20;;;;;;4974201;28;20477;-75
2022/01/28 03:34:35;;;;;;;1.63;1.40;;;4.00;98.20;;;;;;4983414;28;20460;-75
2022/01/28 03:37:01;;;;;;;1.60;1.40;;;4.00;98.20;;;;;;4977669;28;21098;-75
2022/01/28 03:39:28;;;;;;;1.63;1.40;;;4.00;98.20;;;;;;4987954;28;20482;-75
2022/01/28 03:41:56;;;;;;;1.70;1.53;;;3.90;98.20;;;;;;4978559;28;21047;-75
2022/01/28 03:44:23;;;;;;;1.70;1.50;;;3.90;98.20;;;;;;4988243;28;20549;-75
2022/01/28 03:46:50;;;;;;;1.67;1.43;;;3.90;98.20;;;;;;4979077;28;20499;-75
2022/01/28 03:49:16;;;;;;;1.67;1.37;;;3.90;98.20;;;;;;4988927;28;20908;-76
2022/01/28 03:51:43;;;;;;;1.63;1.40;;;3.90;98.20;;;;;;4979555;28;21048;-75
2022/01/28 03:54:10;;;;;;;1.67;1.40;;;3.90;98.20;;;;;;4984442;28;20492;-76
2022/01/28 03:56:37;;;;;;;1.63;1.40;;;3.80;98.20;;;;;;4977102;28;20492;-77
2022/01/28 03:59:05;;;;;;;1.67;1.40;;;3.80;98.20;;;;;;4990175;28;20844;-75
2022/01/28 04:01:36;;;;;;;1.70;1.50;;;3.80;98.20;;;;;;4977800;28;20482;-75
2022/01/28 04:12:20;;;;;;;1.70;1.40;;;3.70;98.20;;;;;;4979036;28;20479;-75
2022/01/28 04:15:02;;;;;;;1.70;1.53;;;3.70;98.20;;;;;;4988379;28;20488;-75
2022/01/28 04:17:28;;;;;;;1.70;1.50;;;3.70;98.20;;;;;;4975244;28;20488;-75
2022/01/28 04:19:55;;;;;;;1.70;1.50;;;3.70;98.20;;;;;;4988023;28;20493;-75
2022/01/28 04:22:22;;;;;;;1.63;1.40;;;3.70;98.20;;;;;;4976590;28;20495;-76
2022/01/28 04:24:49;;;;;;;1.67;1.40;;;3.70;98.20;;;;;;4984668;28;20824;-75
2022/01/28 04:27:16;;;;;;;1.70;1.60;;;3.70;98.20;;;;;;4974556;28;21007;-74
2022/01/28 04:29:43;;;;;;;1.70;1.50;;;3.70;98.20;;;;;;4990699;28;20503;-75
2022/01/28 04:32:12;;;;;;;1.67;1.40;;;3.70;98.20;;;;;;4974756;28;20480;-76
2022/01/28 04:34:39;;;;;;;1.70;1.50;;;3.70;98.20;;;;;;4991140;28;20469;-75
2022/01/28 04:37:18;;;;;;;1.67;1.40;;;3.70;98.20;;;;;;4979402;28;20981;-75
2022/01/28 04:39:51;;;;;;;1.70;1.50;;;3.70;98.20;;;;;;4990489;28;20473;-75
2022/01/28 04:42:33;;;;;;;1.77;1.67;;;3.80;98.20;;;;;;4980174;28;20489;-75
2022/01/28 04:45:05;;;;;;;1.67;1.40;;;3.80;98.20;;;;;;4987496;28;20461;-75
2022/01/28 04:47:41;;;;;;;1.67;1.43;;;3.80;98.20;;;;;;4976946;28;20484;-75
2022/01/28 04:50:16;;;;;;;1.70;1.50;;;3.80;98.20;;;;;;4988819;28;20830;-75
2022/01/28 04:55:42;;;;;;;1.70;1.40;;;3.70;98.20;;;;;;4982615;28;20462;-75
2022/01/28 04:58:24;;;;;;;1.67;1.40;;;3.70;98.20;;;;;;4979084;28;21028;-75
2022/01/28 05:01:01;;;;;;;1.70;1.53;;;3.70;98.20;;;;;;4976977;28;20537;-76
2022/01/28 05:03:46;;;;;;;1.70;1.40;;;3.70;98.20;;;;;;4984307;28;20794;-75
2022/01/28 05:14:54;;;;;;;1.67;1.43;;;3.60;98.20;;;;;;4950383;28;20832;-76
2022/01/28 05:28:20;;;;;;;1.70;1.40;;;3.70;98.20;;;;;;4978469;28;20494;-75
2022/01/28 05:30:47;;;;;;;1.67;1.40;;;3.70;98.20;;;;;;4985648;28;20492;-76
2022/01/28 05:33:14;;;;;;;1.70;1.50;;;3.60;98.20;;;;;;4986950;28;21009;-75
2022/01/28 05:35:42;;;;;;;1.70;1.60;;;3.60;98.20;;;;;;4988609;28;20465;-75
2022/01/28 05:38:09;;;;;;;1.70;1.50;;;3.60;98.20;;;;;;4977407;28;20561;-74
2022/01/28 05:40:36;;;;;;;1.97;1.80;;;3.60;98.20;;;;;;4989983;28;20493;-74
2022/01/28 05:43:03;;;;;;;1.70;1.50;;;3.50;98.20;;;;;;4975331;28;20496;-76
2022/01/28 05:45:29;;;;;;;1.70;1.50;;;3.50;98.20;;;;;;4983628;28;20980;-74
2022/01/28 05:47:58;;;;;;;1.70;1.60;;;3.50;98.20;;;;;;4977552;28;20485;-74
2022/01/28 05:50:24;;;;;;;1.70;1.53;;;3.50;98.20;;;;;;4986714;28;20550;-75
2022/01/28 05:52:52;;;;;;;1.70;1.50;;;3.50;98.20;;;;;;4974025;28;20834;-75
2022/01/28 05:55:19;;;;;;;1.70;1.50;;;3.50;98.20;;;;;;4984567;28;20469;-75
2022/01/28 05:57:46;;;;;;;1.70;1.43;;;3.50;98.20;;;;;;4974248;28;20481;-74
2022/01/28 06:00:16;;;;;;;1.70;1.50;;;3.50;98.20;;;;;;4985499;28;20513;-74
2022/01/28 06:02:44;;;;;;;1.60;1.40;;;3.40;98.20;;;;;;4972125;28;20489;-75
2022/01/28 06:05:10;;;;;;;1.70;1.40;;;3.40;98.20;;;;;;4987490;28;20464;-74
2022/01/28 06:07:41;;;;;;;1.70;1.60;;;3.40;98.20;;;;;;4977546;28;20489;-74
2022/01/28 06:10:10;;;;;;;1.70;1.50;;;3.40;98.20;;;;;;4987899;28;20493;-75
2022/01/28 06:12:41;;;;;;;1.70;1.40;;;3.40;98.20;;;;;;4973283;28;21051;-75
2022/01/28 06:15:09;;;;;;;1.70;1.50;;;3.40;98.20;;;;;;4979465;28;20469;-74
2022/01/28 06:17:36;;;;;;;1.70;1.50;;;3.40;98.20;;;;;;4974810;28;20495;-75
2022/01/28 06:20:04;;;;;;;1.60;1.30;;;3.40;98.20;;;;;;4988291;28;20536;-75
2022/01/28 06:22:30;;;;;;;1.70;1.50;;;3.40;98.20;;;;;;4974219;28;20485;-74
2022/01/28 06:24:57;;;;;;;1.70;1.50;;;3.40;98.20;;;;;;4980160;28;20495;-74
2022/01/28 06:27:26;;;;;;;1.70;1.53;;;3.40;98.20;;;;;;4969032;28;20489;-74
2022/01/28 06:29:52;;;;;;;1.70;1.40;;;3.40;98.20;;;;;;4985121;28;20767;-75
2022/01/28 06:32:19;;;;;;;1.60;1.30;;;3.40;98.20;;;;;;4974672;28;20481;-74
2022/01/28 06:34:46;;;;;;;1.60;1.40;;;3.40;98.20;;;;;;4981978;28;20466;-75
2022/01/28 06:37:13;;;;;;;1.63;1.40;;;3.40;98.20;;;;;;4974697;28;20501;-75
2022/01/28 06:39:40;;;;;;;1.70;1.50;;;3.40;98.20;;;;;;4988003;28;20491;-75
2022/01/28 06:42:07;;;;;;;1.80;1.70;;;3.40;98.20;;;;;;4975831;28;20480;-75
2022/01/28 06:44:36;;;;;;;1.63;1.40;;;3.40;98.20;;;;;;4973422;28;20961;-76
2022/01/28 06:47:03;;;;;;;1.60;1.40;;;3.40;98.20;;;;;;4973997;28;20838;-77
2022/01/28 06:49:31;;;;;;;1.70;1.50;;;3.40;98.20;;;;;;4983426;28;20496;-76
2022/01/28 06:51:58;;;;;;;1.70;1.53;;;3.40;98.20;;;;;;4977195;28;20887;-74
2022/01/28 06:54:25;;;;;;;1.70;1.57;;;3.40;98.20;;;;;;4977411;28;20588;-75
2022/01/28 06:56:51;;;;;;;1.67;1.47;;;3.50;98.20;;;;;;4974911;28;20485;-75
2022/01/28 06:59:18;;;;;;;1.67;1.50;;;3.40;98.20;;;;;;4985750;28;20477;-75
2022/01/28 07:01:46;;;;;;;1.60;1.50;;;3.50;98.20;;;;;;4969486;28;20489;-74
2022/01/28 07:04:14;;;;;;;1.70;1.43;;;3.50;98.20;;;;;;4984205;28;20465;-74
2022/01/28 07:06:41;;;;;;;1.70;1.40;;;3.50;98.20;;;;;;4971436;28;21063;-75
2022/01/28 07:09:09;;;;;;;1.70;1.50;;;3.60;98.20;;;;;;4986024;28;20544;-74
2022/01/28 07:11:35;;;;;;;1.63;1.40;;;3.60;98.20;;;;;;4970976;28;20515;-75
2022/01/28 07:14:02;;;;;;;1.70;1.47;;;3.60;98.20;;;;;;4986183;28;20465;-74
2022/01/28 07:16:30;;;;;;;1.70;1.50;;;3.60;98.20;;;;;;4964723;28;20927;-75
2022/01/28 07:18:58;;;;;;;1.70;1.50;;;3.50;98.20;;;;;;4985503;28;20481;-77
2022/01/28 07:21:25;;;;;;;1.70;1.50;;;3.50;98.20;;;;;;4971873;28;20473;-76
2022/01/28 07:23:52;;;;;;;1.70;1.60;;;3.50;98.20;;;;;;4974845;28;20840;-75
2022/01/28 07:26:18;;;;;;;1.70;1.50;;;3.50;98.20;;;;;;4971793;28;20568;-76
2022/01/28 07:28:46;;;;;;;1.70;1.50;;;3.50;98.20;;;;;;5002748;28;20481;-76
2022/01/28 07:31:15;;;;;;;1.70;1.50;;;3.50;98.20;;;;;;4978795;28;20835;-78
2022/01/28 07:33:42;;;;;;;1.67;1.40;;;3.50;98.20;;;;;;5001326;28;20473;-75
2022/01/28 07:36:10;;;;;;;1.67;1.40;;;3.50;98.20;;;;;;4976968;28;22100;-75
2022/01/28 07:38:37;;;;;;;1.70;1.50;;;3.40;98.20;;;;;;5003389;28;20836;-75
2022/01/28 07:41:05;;;;;;;1.70;1.50;;;3.40;98.20;;;;;;4977009;28;20496;-75
2022/01/28 07:43:34;;;;;;;1.70;1.50;;;3.40;98.20;;;;;;5001629;28;20472;-75
2022/01/28 07:46:01;;;;;;;1.67;1.40;;;3.40;98.20;;;;;;4974093;28;20469;-75
2022/01/28 07:48:28;;;;;;;1.70;1.50;;;3.40;98.20;;;;;;5001143;28;20888;-76
2022/01/28 07:50:54;;;;;;;2.43;2.23;;;3.50;98.20;;;;;;4975190;28;20489;-75
2022/01/28 07:53:23;;;;;;;1.67;1.40;;;3.50;98.20;;;;;;5001220;28;20575;-78
2022/01/28 07:55:49;;;;;;;1.67;1.40;;;3.50;98.20;;;;;;4970648;28;20926;-74
2022/01/28 07:58:16;;;;;;;1.63;1.40;;;3.50;98.20;;;;;;5001724;28;20474;-75
2022/01/28 08:00:43;;;;;;;1.70;1.50;;;3.60;98.20;;;;;;4983246;28;20481;-75
2022/01/28 08:03:10;;;;;;;1.70;1.40;;;3.60;98.20;;;;;;4973810;28;20485;-75
2022/01/28 08:05:37;;;;;;;1.70;1.50;;;3.60;98.20;;;;;;4984344;28;20551;-75
2022/01/28 08:08:07;;;;;;;1.63;1.40;;;3.70;98.20;;;;;;4973828;28;20516;-76
2022/01/28 08:10:36;;;;;;;1.63;1.40;;;3.80;98.20;;;;;;4983152;28;20492;-75
2022/01/28 08:13:03;;;;;;;1.63;1.40;;;3.90;98.20;;;;;;4995873;28;20508;-78
2022/01/28 08:15:31;;;;;;;1.67;1.40;;;4.00;98.20;;;;;;4983371;28;20858;-76
2022/01/28 08:17:58;;;;;;;1.70;1.53;;;4.10;98.20;;;;;;4975789;28;20848;-75
2022/01/28 08:20:24;;;;;;;1.70;1.40;;;4.20;98.20;;;;;;4987397;28;20748;-77
2022/01/28 08:22:53;;;;;;;1.70;1.60;;;4.30;98.20;;;;;;4974311;28;20488;-76
2022/01/28 08:25:23;;;;;;;1.70;1.40;;;4.30;98.20;;;;;;4978273;28;20466;-76
2022/01/28 08:27:52;;;;;;;1.70;1.60;;;4.30;98.20;;;;;;4969544;28;20485;-76
2022/01/28 08:30:21;;;;;;;1.70;1.50;;;4.40;98.20;;;;;;4971289;28;21215;-77
2022/01/28 08:32:49;;;;;;;1.60;1.30;;;4.40;98.20;;;;;;4976770;28;20806;-75
2022/01/28 08:35:17;;;;;;;1.70;1.40;;;4.40;98.20;;;;;;5432463;23;20509;-77
2022/01/28 08:37:44;;;;;;;1.67;1.40;;;4.50;98.20;;;;;;4958093;28;20478;-76
2022/01/28 08:40:13;;;;;;;1.70;1.50;;;4.60;98.20;;;;;;4967109;28;20501;-77
2022/01/28 08:42:41;;;;;;;1.60;1.30;;;4.70;98.20;;;;;;4959082;28;20501;-73
2022/01/28 08:45:10;;;;;;;1.80;1.70;;;4.70;98.20;;;;;;4968688;28;20884;-77
2022/01/28 08:47:37;;;;;;;1.63;1.40;;;4.80;98.20;;;;;;4958000;28;20584;-77
2022/01/28 08:50:05;;;;;;;1.67;1.30;;;4.80;98.20;;;;;;4969436;28;20524;-76
2022/01/28 08:52:32;;;;;;;1.70;1.50;;;4.90;98.20;;;;;;4952961;28;20541;-77
2022/01/28 08:54:59;;;;;;;1.67;1.40;;;5.00;98.20;;;;;;4966982;28;20481;-74
2022/01/28 08:57:26;;;;;;;1.67;1.30;;;5.00;98.20;;;;;;4954243;28;20867;-74
2022/01/28 08:59:53;;;;;;;1.70;1.40;;;5.10;98.20;;;;;;4965006;28;20791;-75
2022/01/28 09:02:21;;;;;;;1.60;1.40;;;5.10;98.20;;;;;;4953382;28;20490;-76
2022/01/28 09:04:49;;;;;;;1.67;1.37;;;5.20;98.20;;;;;;4965745;28;20494;-78
2022/01/28 09:07:18;;;;;;;1.63;1.40;;;5.20;98.20;;;;;;4958798;28;20490;-74
2022/01/28 09:09:50;;;;;;;1.60;1.30;;;5.20;98.20;;;;;;4967915;28;20496;-74
2022/01/28 09:12:33;;;;;;;1.63;1.40;;;5.10;98.20;;;;;;4951207;28;20482;-74
2022/01/28 09:15:00;;;;;;;1.70;1.50;;;5.20;98.20;;;;;;4966548;28;20681;-77
2022/01/28 09:17:28;;;;;;;1.63;1.30;;;5.20;98.20;;;;;;4952789;28;20898;-74
2022/01/28 09:19:55;;;;;;;1.60;1.30;;;5.30;98.20;;;;;;4965908;28;20454;-74
2022/01/28 09:22:22;;;;;;;1.63;1.30;;;5.40;98.20;;;;;;4953665;28;20506;-74
2022/01/28 09:24:49;;;;;;;1.67;1.40;;;5.50;98.20;;;;;;4962459;28;20537;-79
2022/01/28 09:27:18;;;;;;;1.63;1.30;;;5.70;98.20;;;;;;4947624;28;20482;-74
2022/01/28 09:29:45;;;;;;;1.63;1.33;;;5.80;98.20;;;;;;4962679;28;21097;-75
2022/01/28 09:32:11;;;;;;;1.67;1.40;;;5.90;98.20;;;;;;4955277;28;20494;-74
2022/01/28 09:34:40;;;;;;;1.60;1.30;;;6.00;98.20;;;;;;4966664;28;20630;-75
2022/01/28 09:37:06;;;;;;;1.63;1.40;;;6.10;98.20;;;;;;4950871;28;20810;-75
2022/01/28 09:39:36;;;;;;;1.70;1.30;;;6.10;98.20;;;;;;4960604;28;20554;-75
2022/01/28 09:42:03;;;;;;;1.67;1.30;;;6.20;98.20;;;;;;4950327;28;20545;-75
2022/01/28 09:44:31;;;;;;;1.70;1.40;;;6.20;98.20;;;;;;4960859;28;20485;-77
2022/01/28 09:46:59;;;;;;;1.60;1.20;;;6.30;98.20;;;;;;4955743;28;20494;-77
2022/01/28 09:49:27;;;;;;;1.67;1.30;;;6.30;98.20;;;;;;4965780;28;20494;-75
2022/01/28 09:51:55;;;;;;;1.60;1.30;;;6.30;98.20;;;;;;4954307;28;20518;-77
2022/01/28 09:54:23;;;;;;;1.60;1.30;;;6.40;98.20;;;;;;4958593;28;20462;-75
2022/01/28 09:56:50;;;;;;;1.67;1.33;;;6.40;98.20;;;;;;4950192;28;20490;-75
2022/01/28 09:59:17;;;;;;;1.60;1.30;;;6.50;98.20;;;;;;4960964;28;20466;-75
2022/01/28 10:01:51;;;;;;;1.67;1.30;;;6.60;98.20;;;;;;4952960;28;20492;-77
2022/01/28 10:04:18;;;;;;;1.63;1.30;;;6.70;98.20;;;;;;4963134;28;20465;-77
2022/01/28 10:06:46;;;;;;;1.60;1.20;;;6.80;98.20;;;;;;4954632;28;20485;-75
2022/01/28 10:09:16;;;;;;;1.67;1.30;;;6.90;98.20;;;;;;4961691;28;20845;-77
2022/01/28 10:11:46;;;;;;;1.60;1.30;;;7.00;98.20;;;;;;4951299;28;20997;-76
2022/01/28 10:14:16;;;;;;;1.70;1.40;;;7.10;98.20;;;;;;4962596;28;20872;-76
2022/01/28 10:16:43;;;;;;;1.60;1.20;;;7.10;98.20;;;;;;4952870;28;20497;-76
2022/01/28 10:19:11;;;;;;;1.70;1.30;;;7.20;98.20;;;;;;4960262;28;20863;-78
2022/01/28 10:21:40;;;;;;;1.60;1.30;;;7.30;98.20;;;;;;4951698;28;20939;-75
2022/01/28 10:24:10;;;;;;;1.63;1.30;;;7.40;98.20;;;;;;4962659;28;20836;-76
2022/01/28 10:26:42;;;;;;;1.63;1.30;;;7.40;98.20;;;;;;4952748;28;20849;-76
2022/01/28 10:29:11;;;;;;;1.60;1.20;;;7.60;98.20;;;;;;4963480;28;20472;-77
2022/01/28 10:31:48;;;;;;;1.70;1.30;;;7.60;98.20;;;;;;4952398;28;20945;-76
2022/01/28 10:34:24;;;;;;;1.63;1.30;;;7.80;98.20;;;;;;4961828;28;20610;-77
2022/01/28 10:37:06;;;;;;;2.33;2.13;;;8.00;98.20;;;;;;4951209;28;20482;-77
2022/01/28 10:39:39;;;;;;;1.67;1.20;;;8.10;98.20;;;;;;4962718;28;20466;-76
2022/01/28 10:42:09;;;;;;;1.60;1.20;;;8.10;98.20;;;;;;4949643;28;20497;-76
2022/01/28 10:44:52;;;;;;;1.60;1.20;;;8.20;98.20;;;;;;4962153;28;20490;-77
2022/01/28 10:47:31;;;;;;;1.63;1.20;;;8.30;98.20;;;;;;4949734;28;21001;-76
2022/01/28 10:49:58;;;;;;;1.67;1.20;;;8.30;98.20;;;;;;4962107;28;20496;-77
2022/01/28 10:52:31;;;;;;;1.70;1.30;;;8.30;98.20;;;;;;4945848;28;20573;-76
2022/01/28 10:54:58;;;;;;;1.60;1.20;;;8.40;98.20;;;;;;4960398;28;21037;-76
2022/01/28 10:57:29;;;;;;;1.67;1.20;;;8.40;98.20;;;;;;4948268;28;20502;-78
2022/01/28 10:59:57;;;;;;;1.70;1.30;;;8.50;98.20;;;;;;4963473;28;20462;-76
2022/01/28 11:02:25;;;;;;;1.63;1.10;;;8.60;98.20;;;;;;4943552;28;20845;-76
2022/01/28 11:04:54;;;;;;;1.70;1.30;;;8.60;98.20;;;;;;4964520;28;20870;-77
2022/01/28 11:07:21;;;;;;;1.60;1.13;;;8.50;98.20;;;;;;4945507;28;20494;-77
2022/01/28 11:09:49;;;;;;;1.70;1.30;;;8.40;98.20;;;;;;4964708;28;20855;-78
2022/01/28 11:12:17;;;;;;;1.60;1.20;;;8.40;98.20;;;;;;4948583;28;20561;-80
2022/01/28 11:14:45;;;;;;;1.60;1.20;;;8.50;98.20;;;;;;4963297;28;20493;-76
2022/01/28 11:17:15;;;;;;;4.10;3.83;;;8.50;98.20;;;;;;4944656;28;20497;-79
2022/01/28 11:19:44;;;;;;;1.70;1.30;;;8.50;98.20;;;;;;4963918;28;20609;-76
2022/01/28 11:22:39;;;;;;;1.67;1.20;;;8.60;98.20;;;;;;4949982;28;20491;-76
2022/01/28 11:25:40;;;;;;;1.70;1.37;;;8.70;98.20;;;;;;4958722;28;20596;-80
2022/01/28 11:28:09;;;;;;;1.63;1.20;;;8.70;98.20;;;;;;4929095;28;21076;-76
2022/01/28 11:30:45;;;;;;;1.63;1.23;;;8.80;98.20;;;;;;4964441;28;20489;-77
2022/01/28 11:33:13;;;;;;;1.63;1.20;;;8.90;98.20;;;;;;4954505;28;20494;-75
2022/01/28 11:35:41;;;;;;;1.67;1.20;;;8.90;98.20;;;;;;4964550;28;20502;-77
2022/01/28 11:38:43;;;;;;;1.63;1.20;;;9.00;98.20;;;;;;4954899;28;20497;-77
2022/01/28 11:41:13;;;;;;;2.57;2.37;;;8.90;98.20;;;;;;4950906;28;20526;-78
2022/01/28 11:43:50;;;;;;;1.63;1.20;;;8.80;98.20;;;;;;4960729;28;20473;-76
2022/01/28 11:46:22;;;;;;;1.63;1.20;;;8.70;98.20;;;;;;4949227;28;20792;-79
2022/01/28 11:49:25;;;;;;;1.70;1.30;;;8.70;98.20;;;;;;4956663;28;20473;-78
2022/01/28 11:51:53;;;;;;;1.67;1.20;;;8.70;98.20;;;;;;4953796;28;20921;-76
2022/01/28 11:54:23;;;;;;;1.63;1.20;;;8.70;98.20;;;;;;4961442;28;20569;-76
2022/01/28 11:57:13;;;;;;;1.70;1.30;;;8.70;98.20;;;;;;4947960;28;20872;-75
2022/01/28 11:59:40;;;;;;;1.63;1.20;;;8.70;98.20;;;;;;4961622;28;20976;-78
2022/01/28 12:02:11;;;;;;;1.60;1.17;;;8.80;98.20;;;;;;4951353;28;20482;-76
2022/01/28 12:04:40;;;;;;;1.70;1.37;;;8.90;98.20;;;;;;4967643;28;20573;-76
2022/01/28 12:07:10;;;;;;;1.63;1.20;;;9.00;98.20;;;;;;4950610;28;20496;-75
2022/01/28 12:09:39;;;;;;;1.63;1.10;;;9.00;98.20;;;;;;4962819;28;20922;-76
2022/01/28 12:12:09;;;;;;;1.60;1.10;;;9.10;98.20;;;;;;4952298;28;20489;-78
2022/01/28 12:15:10;;;;;;;1.60;1.20;;;9.20;98.20;;;;;;4960399;28;20486;-78
2022/01/28 12:17:40;;;;;;;1.60;1.10;;;9.40;98.20;;;;;;4955150;28;21203;-76
2022/01/28 12:20:35;;;;;;;1.63;1.20;;;9.60;98.20;;;;;;4966458;28;20469;-76
2022/01/28 12:23:24;;;;;;;1.70;1.40;;;9.60;98.20;;;;;;4954370;28;20486;-76
2022/01/28 12:25:55;;;;;;;1.70;1.20;;;9.70;98.20;;;;;;4956325;28;20524;-78
2022/01/28 12:28:24;;;;;;;1.70;1.20;;;9.70;98.20;;;;;;4963769;28;20981;-76
2022/01/28 12:30:57;;;;;;;1.67;1.10;;;9.70;98.20;;;;;;4956224;28;20482;-75
2022/01/28 12:33:27;;;;;;;1.70;1.23;;;9.50;98.20;;;;;;4965509;28;20469;-75
2022/01/28 12:35:56;;;;;;;1.60;1.10;;;9.30;98.20;;;;;;4955851;28;21013;-78
2022/01/28 12:38:26;;;;;;;1.70;1.40;;;9.10;98.20;;;;;;4959349;28;20470;-76
2022/01/28 12:40:54;;;;;;;1.60;1.20;;;8.90;98.20;;;;;;4955148;28;20461;-80
2022/01/28 12:43:23;;;;;;;1.60;1.20;;;8.80;98.20;;;;;;4966401;28;20544;-81
2022/01/28 12:45:59;;;;;;;1.60;1.20;;;8.60;98.20;;;;;;4955503;28;21232;-76
2022/01/28 12:48:27;;;;;;;1.70;1.30;;;8.40;98.20;;;;;;4953712;28;20485;-76
2022/01/28 12:50:56;;;;;;;1.70;1.30;;;8.30;98.20;;;;;;4951128;28;20490;-77
2022/01/28 12:53:30;;;;;;;1.70;1.20;;;8.10;98.20;;;;;;4958075;28;20474;-79
2022/01/28 12:55:59;;;;;;;1.60;1.20;;;8.00;98.20;;;;;;4948639;28;20489;-80
2022/01/28 12:58:37;;;;;;;1.70;1.30;;;8.00;98.20;;;;;;4956844;28;20474;-79
2022/01/28 13:01:09;;;;;;;1.60;1.20;;;8.00;98.20;;;;;;4952405;28;20462;-78
2022/01/28 13:03:46;;;;;;;1.63;1.23;;;8.10;98.20;;;;;;4962041;28;20474;-79
2022/01/28 13:06:28;;;;;;;1.60;1.20;;;8.10;98.20;;;;;;4952893;28;20493;-76
2022/01/28 13:08:56;;;;;;;1.60;1.20;;;8.10;98.20;;;;;;4962633;28;20978;-79
2022/01/28 13:11:24;;;;;;;1.63;1.20;;;8.00;98.20;;;;;;4950311;28;20491;-79
2022/01/28 13:13:53;;;;;;;1.60;1.20;;;8.00;98.20;;;;;;4958275;28;20973;-76
2022/01/28 13:16:37;;;;;;;1.60;1.20;;;8.00;98.20;;;;;;4953642;28;20985;-77
2022/01/28 13:19:06;;;;;;;1.63;1.20;;;7.90;98.20;;;;;;4962671;28;20468;-79
2022/01/28 13:21:34;;;;;;;1.60;1.10;;;7.90;98.20;;;;;;4952506;28;20577;-77
2022/01/28 13:24:06;;;;;;;1.63;1.20;;;7.80;98.20;;;;;;4962993;28;20549;-75
2022/01/28 13:26:33;;;;;;;1.60;1.20;;;7.70;98.20;;;;;;4952465;28;20499;-78
2022/01/28 13:29:09;;;;;;;1.60;1.20;;;7.70;98.20;;;;;;4962176;28;20465;-78
2022/01/28 13:31:36;;;;;;;1.60;1.20;;;7.70;98.20;;;;;;4952734;28;20566;-78
2022/01/28 13:34:08;;;;;;;1.60;1.20;;;7.60;98.20;;;;;;4964538;28;20970;-77
2022/01/28 13:36:45;;;;;;;1.60;1.20;;;7.60;98.20;;;;;;4951231;28;20581;-77
2022/01/28 13:39:17;;;;;;;1.60;1.20;;;7.60;98.20;;;;;;4960470;28;20465;-76
2022/01/28 13:41:45;;;;;;;1.70;1.30;;;7.60;98.20;;;;;;4947834;28;20568;-76
2022/01/28 13:44:23;;;;;;;1.70;1.30;;;7.60;98.20;;;;;;4958769;28;21108;-78
2022/01/28 13:46:58;;;;;;;1.70;1.40;;;7.60;98.20;;;;;;4948177;28;20585;-76
2022/01/28 13:49:31;;;;;;;1.63;1.20;;;7.70;98.20;;;;;;4956491;28;21041;-77
2022/01/28 13:52:18;;;;;;;1.60;1.20;;;7.70;98.20;;;;;;4946750;28;20494;-78
2022/01/28 13:54:45;;;;;;;1.63;1.30;;;7.70;98.20;;;;;;4961634;28;20486;-76
2022/01/28 13:57:13;;;;;;;1.70;1.30;;;7.80;98.20;;;;;;4950473;28;20487;-79
2022/01/28 13:59:42;;;;;;;1.67;1.30;;;7.80;98.20;;;;;;4957840;28;20517;-76
2022/01/28 14:02:13;;;;;;;1.70;1.30;;;7.90;98.20;;;;;;4947387;28;20502;-77
2022/01/28 14:04:44;;;;;;;1.60;1.20;;;7.90;98.20;;;;;;4958260;28;20528;-77
2022/01/28 14:07:13;;;;;;;1.60;1.20;;;8.00;98.20;;;;;;4951874;28;20486;-77
2022/01/28 14:09:55;;;;;;;1.60;1.20;;;8.00;98.20;;;;;;4962420;28;20472;-77
2022/01/28 14:12:43;;;;;;;1.70;1.30;;;8.10;98.20;;;;;;4944523;28;20499;-76
2022/01/28 14:15:16;;;;;;;1.60;1.20;;;8.20;98.20;;;;;;4963390;28;20569;-78